Time;durP1;ratioP1;P1;durP2;ratioP2;P2;SDS_P1;SDS_P2;PMS_P1;PMS_P2;Temp;Humidity;BMP_temperature;BMP_pressure;BME280_temperature;BME280_humidity;BME280_pressure;Samples;Min_cycle;Max_cycle;Signal;HPM_P1;HPM_P2
2021/03/21 00:00:52;;;;;;;9.00;8.10;;;9.50;65.50;;;;;;4991283;28;20197;-80
2021/03/21 00:03:19;;;;;;;9.80;8.80;;;9.50;65.80;;;;;;5012704;28;20642;-80
2021/03/21 00:05:45;;;;;;;11.85;10.65;;;9.50;66.30;;;;;;4979102;28;20568;-80
2021/03/21 00:08:17;;;;;;;11.57;10.47;;;9.50;66.70;;;;;;4995137;28;20181;-81
2021/03/21 00:10:51;;;;;;;12.75;11.43;;;9.50;67.60;;;;;;5016967;28;20170;-80
2021/03/21 00:13:19;;;;;;;14.90;11.38;;;9.50;69.40;;;;;;5012746;28;20175;-79
2021/03/21 00:15:45;;;;;;;13.05;11.82;;;9.40;68.90;;;;;;5012592;28;20158;-80
2021/03/21 00:18:12;;;;;;;13.10;11.88;;;9.40;69.20;;;;;;4994692;28;20178;-80
2021/03/21 00:20:39;;;;;;;13.50;12.20;;;9.40;69.80;;;;;;4995136;28;20163;-80
2021/03/21 00:23:05;;;;;;;12.13;11.05;;;9.40;70.10;;;;;;5012581;28;20178;-79
2021/03/21 00:25:33;;;;;;;13.45;12.20;;;9.40;70.60;;;;;;4994886;28;20232;-79
2021/03/21 00:28:00;;;;;;;16.17;12.95;;;9.40;71.50;;;;;;5012196;28;20578;-79
2021/03/21 00:30:31;;;;;;;14.57;13.07;;;9.30;71.70;;;;;;5012596;28;20213;-79
2021/03/21 00:32:57;;;;;;;14.88;13.25;;;9.30;72.20;;;;;;4994919;28;20264;-79
2021/03/21 00:35:24;;;;;;;13.27;11.90;;;9.30;73.40;;;;;;5012620;28;20348;-79
2021/03/21 00:38:01;;;;;;;15.82;14.32;;;9.30;73.80;;;;;;4994720;28;20581;-79
2021/03/21 00:40:28;;;;;;;12.93;11.75;;;9.30;74.60;;;;;;5012861;28;20166;-78
2021/03/21 00:42:54;;;;;;;14.05;12.18;;;9.40;74.30;;;;;;4996092;28;20198;-78
2021/03/21 00:45:21;;;;;;;13.55;12.25;;;9.30;74.80;;;;;;4996125;28;20324;-79
2021/03/21 00:47:48;;;;;;;13.63;12.25;;;9.40;76.30;;;;;;4999522;28;20175;-79
2021/03/21 00:50:20;;;;;;;17.73;14.80;;;9.40;77.00;;;;;;5012723;28;20217;-79
2021/03/21 00:52:46;;;;;;;16.83;15.02;;;9.40;77.90;;;;;;4978663;28;20244;-79
2021/03/21 00:55:13;;;;;;;17.00;15.18;;;9.30;77.60;;;;;;5012727;28;20188;-79
2021/03/21 00:57:40;;;;;;;16.45;14.75;;;9.40;78.10;;;;;;4994206;28;20630;-79
2021/03/21 01:00:16;;;;;;;16.67;14.80;;;9.30;78.50;;;;;;5011978;28;20177;-79
2021/03/21 01:02:41;;;;;;;15.82;14.13;;;9.30;78.90;;;;;;4994752;28;20292;-79
2021/03/21 01:05:11;;;;;;;15.60;13.70;;;9.30;79.30;;;;;;5011800;28;20285;-79
2021/03/21 01:07:37;;;;;;;14.77;13.30;;;9.30;80.90;;;;;;4978075;28;20174;-79
2021/03/21 01:10:05;;;;;;;12.60;11.40;;;9.20;80.70;;;;;;5012177;28;20171;-79
2021/03/21 01:12:30;;;;;;;12.70;10.90;;;9.20;81.00;;;;;;4978441;28;20609;-79
2021/03/21 01:14:56;;;;;;;11.23;10.13;;;9.20;81.40;;;;;;5012118;28;20170;-79
2021/03/21 01:17:22;;;;;;;11.50;10.40;;;9.20;82.50;;;;;;5011683;28;20571;-79
2021/03/21 01:19:48;;;;;;;13.77;11.37;;;9.20;82.90;;;;;;5012437;28;20163;-79
2021/03/21 01:22:13;;;;;;;12.37;11.07;;;9.10;83.20;;;;;;5012309;28;20187;-79
2021/03/21 01:24:40;;;;;;;11.97;10.87;;;9.10;84.70;;;;;;5017563;28;20190;-79
2021/03/21 01:27:07;;;;;;;15.65;10.80;;;9.00;84.70;;;;;;5012032;28;20505;-78
2021/03/21 01:29:33;;;;;;;12.82;11.18;;;9.00;85.60;;;;;;4994358;28;20170;-79
2021/03/21 01:31:58;;;;;;;12.83;11.53;;;9.00;86.50;;;;;;5011618;28;20237;-79
2021/03/21 01:34:24;;;;;;;13.57;12.17;;;8.90;87.10;;;;;;5011688;28;20173;-78
2021/03/21 01:36:50;;;;;;;12.77;11.47;;;8.90;88.10;;;;;;4993738;28;20182;-79
2021/03/21 01:39:24;;;;;;;12.77;11.47;;;8.90;89.20;;;;;;5011796;28;20631;-79
2021/03/21 01:42:06;;;;;;;11.40;10.20;;;8.80;90.40;;;;;;4993926;28;20196;-79
2021/03/21 01:44:32;;;;;;;11.82;10.38;;;8.80;90.40;;;;;;5012088;28;20201;-79
2021/03/21 01:46:58;;;;;;;13.37;11.97;;;8.80;90.50;;;;;;4993126;28;20616;-79
2021/03/21 01:49:46;;;;;;;11.67;10.00;;;8.70;90.60;;;;;;5002988;28;20621;-79
2021/03/21 01:52:34;;;;;;;12.23;10.93;;;8.70;91.00;;;;;;5011084;28;20544;-79
2021/03/21 01:55:01;;;;;;;10.95;9.85;;;8.70;91.90;;;;;;5011515;28;20178;-79
2021/03/21 01:57:28;;;;;;;10.10;9.10;;;8.70;91.80;;;;;;4993833;28;20582;-79
2021/03/21 01:59:54;;;;;;;10.45;9.32;;;8.60;91.90;;;;;;5013955;28;20179;-79
2021/03/21 02:02:20;;;;;;;10.68;9.68;;;8.60;92.30;;;;;;5015472;28;20289;-79
2021/03/21 02:04:46;;;;;;;11.23;9.93;;;8.60;92.70;;;;;;4994021;28;20269;-79
2021/03/21 02:07:30;;;;;;;11.10;10.10;;;8.60;92.90;;;;;;5011149;28;20502;-79
2021/03/21 02:10:05;;;;;;;10.48;9.00;;;8.60;93.20;;;;;;4993857;28;20937;-79
2021/03/21 02:13:06;;;;;;;10.90;9.80;;;8.60;94.10;;;;;;5011382;28;20204;-79
2021/03/21 02:15:37;;;;;;;11.30;9.30;;;8.60;93.70;;;;;;5010539;28;20233;-79
2021/03/21 02:18:30;;;;;;;11.52;9.60;;;8.50;93.60;;;;;;4994677;28;20549;-79
2021/03/21 02:21:01;;;;;;;11.70;9.27;;;8.50;94.40;;;;;;4983601;28;20232;-79
2021/03/21 02:24:05;;;;;;;11.00;8.85;;;8.50;94.40;;;;;;5014771;28;20658;-79
2021/03/21 02:27:00;;;;;;;11.38;9.38;;;8.40;95.00;;;;;;5014381;28;20509;-79
2021/03/21 02:29:35;;;;;;;10.55;8.50;;;8.40;95.70;;;;;;4997243;28;20179;-79
2021/03/21 02:32:23;;;;;;;9.55;7.65;;;8.40;95.50;;;;;;5014587;28;20190;-79
2021/03/21 02:34:58;;;;;;;10.43;9.32;;;8.40;96.10;;;;;;4996996;28;20221;-79
2021/03/21 02:37:44;;;;;;;10.23;8.52;;;8.40;95.60;;;;;;4998027;28;20249;-79
2021/03/21 02:40:42;;;;;;;13.10;10.40;;;8.40;96.00;;;;;;5015909;28;20182;-79
2021/03/21 02:43:16;;;;;;;12.82;10.07;;;8.40;96.50;;;;;;4997017;28;20572;-79
2021/03/21 02:45:45;;;;;;;13.18;10.00;;;8.40;96.30;;;;;;5014336;28;20202;-79
2021/03/21 02:48:15;;;;;;;10.23;9.13;;;8.50;96.50;;;;;;4996614;28;20197;-79
2021/03/21 02:50:48;;;;;;;10.63;9.45;;;8.50;96.90;;;;;;5014544;28;20162;-79
2021/03/21 02:53:39;;;;;;;10.10;9.00;;;8.50;97.20;;;;;;4997113;28;20584;-79
2021/03/21 02:56:07;;;;;;;8.98;8.07;;;8.50;97.90;;;;;;4997181;28;20581;-79
2021/03/21 02:58:39;;;;;;;11.02;9.43;;;8.50;97.20;;;;;;5014317;28;20233;-79
2021/03/21 03:01:19;;;;;;;10.73;9.63;;;8.50;97.30;;;;;;5015686;28;20267;-79
2021/03/21 03:03:48;;;;;;;9.75;8.30;;;8.50;98.20;;;;;;5017243;28;20257;-79
2021/03/21 03:06:20;;;;;;;10.02;9.02;;;8.50;97.60;;;;;;5002547;28;20206;-79
2021/03/21 03:08:53;;;;;;;11.85;9.93;;;8.50;97.90;;;;;;5005149;28;20170;-79
2021/03/21 03:11:24;;;;;;;9.98;8.90;;;8.50;98.30;;;;;;5016792;28;20209;-79
2021/03/21 03:14:06;;;;;;;8.77;6.90;;;8.50;98.20;;;;;;5016201;28;20185;-79
2021/03/21 03:17:04;;;;;;;10.18;7.85;;;8.40;99.10;;;;;;5002630;28;20174;-79
2021/03/21 03:19:54;;;;;;;10.63;9.27;;;8.50;98.50;;;;;;5014086;28;20305;-79
2021/03/21 03:22:31;;;;;;;8.63;7.72;;;8.50;99.20;;;;;;4980152;28;20209;-79
2021/03/21 03:25:13;;;;;;;9.40;8.48;;;8.50;98.70;;;;;;5013643;28;20205;-78
2021/03/21 03:27:58;;;;;;;8.52;7.72;;;8.50;99.30;;;;;;4995558;28;20174;-79
2021/03/21 03:30:33;;;;;;;7.78;7.10;;;8.50;99.90;;;;;;5012466;28;20174;-79
2021/03/21 03:32:59;;;;;;;10.75;9.25;;;8.50;99.90;;;;;;4996011;28;20275;-79
2021/03/21 03:35:25;;;;;;;9.07;8.17;;;8.50;99.60;;;;;;5013408;28;20250;-79
2021/03/21 03:37:52;;;;;;;11.13;8.75;;;8.50;99.60;;;;;;4995240;28;20182;-79
2021/03/21 03:40:20;;;;;;;9.68;8.68;;;8.50;99.90;;;;;;5013310;28;20178;-79
2021/03/21 03:43:10;;;;;;;9.50;8.40;;;8.50;99.90;;;;;;4995705;28;20202;-79
2021/03/21 03:45:55;;;;;;;9.60;8.38;;;8.50;99.90;;;;;;4979631;28;20272;-79
2021/03/21 03:48:40;;;;;;;10.82;9.70;;;8.50;99.90;;;;;;4962915;28;20177;-79
2021/03/21 03:51:16;;;;;;;8.80;7.90;;;8.50;99.90;;;;;;5013687;28;20237;-80
2021/03/21 03:54:14;;;;;;;9.73;8.63;;;8.50;99.90;;;;;;5000753;28;20550;-80
2021/03/21 03:57:10;;;;;;;10.25;8.35;;;8.50;99.90;;;;;;5012750;28;20320;-79
2021/03/21 04:00:00;;;;;;;10.73;9.32;;;8.50;99.90;;;;;;5013001;28;20170;-79
2021/03/21 04:03:02;;;;;;;9.60;8.65;;;8.50;99.90;;;;;;4995456;28;20324;-79
2021/03/21 04:05:39;;;;;;;9.00;8.02;;;8.50;99.90;;;;;;5012904;28;20258;-79
2021/03/21 04:08:40;;;;;;;10.02;8.95;;;8.50;99.90;;;;;;4994952;28;20167;-79
2021/03/21 04:11:18;;;;;;;10.23;9.23;;;8.40;99.90;;;;;;5012587;28;20550;-78
2021/03/21 04:13:53;;;;;;;8.52;7.60;;;8.40;99.90;;;;;;5013390;28;20154;-79
2021/03/21 04:16:24;;;;;;;10.82;9.73;;;8.40;99.90;;;;;;5011748;28;20166;-80
2021/03/21 04:19:07;;;;;;;10.32;8.95;;;8.40;99.90;;;;;;4995029;28;20178;-80
2021/03/21 04:21:41;;;;;;;12.45;9.73;;;8.40;99.90;;;;;;5012627;28;20229;-80
2021/03/21 04:24:21;;;;;;;10.45;9.35;;;8.40;99.90;;;;;;5012776;28;20161;-80
2021/03/21 04:26:53;;;;;;;9.63;8.65;;;8.50;99.90;;;;;;5012218;28;20253;-80
2021/03/21 04:29:29;;;;;;;10.13;9.07;;;8.40;99.90;;;;;;5016549;28;20169;-79
2021/03/21 04:31:59;;;;;;;11.35;10.18;;;8.50;99.90;;;;;;4995493;28;20537;-80
2021/03/21 04:34:27;;;;;;;9.45;8.45;;;8.50;99.90;;;;;;4995277;28;20557;-80
2021/03/21 04:36:55;;;;;;;10.63;9.05;;;8.50;99.90;;;;;;4994686;28;20579;-80
2021/03/21 04:39:32;;;;;;;9.85;8.40;;;8.50;99.90;;;;;;4995036;28;20167;-79
2021/03/21 04:42:05;;;;;;;10.80;8.50;;;8.50;99.90;;;;;;4994234;28;20190;-79
2021/03/21 04:44:34;;;;;;;10.20;9.00;;;8.50;99.90;;;;;;5012317;28;20194;-79
2021/03/21 04:47:21;;;;;;;10.38;8.45;;;8.50;99.90;;;;;;4994233;28;20174;-80
2021/03/21 04:49:47;;;;;;;8.57;7.55;;;8.40;99.90;;;;;;4978728;28;20170;-80
2021/03/21 04:52:40;;;;;;;9.77;8.50;;;8.40;99.90;;;;;;5017195;28;20709;-80
2021/03/21 04:55:14;;;;;;;10.10;7.88;;;8.40;99.90;;;;;;5012288;28;20576;-79
2021/03/21 04:57:54;;;;;;;9.60;7.53;;;8.40;99.90;;;;;;5011874;28;20177;-79
2021/03/21 05:00:33;;;;;;;8.20;7.35;;;8.40;99.90;;;;;;4994652;28;20261;-79
2021/03/21 05:03:07;;;;;;;8.35;7.13;;;8.40;99.90;;;;;;5012114;28;20190;-80
2021/03/21 05:05:39;;;;;;;8.60;7.40;;;8.40;99.90;;;;;;4978780;28;20205;-80
2021/03/21 05:08:29;;;;;;;9.15;8.02;;;8.40;99.90;;;;;;4999239;28;20174;-80
2021/03/21 05:11:00;;;;;;;9.18;7.95;;;8.40;99.90;;;;;;5011626;28;20206;-80
2021/03/21 05:13:43;;;;;;;11.45;8.45;;;8.50;99.90;;;;;;4994435;28;20186;-80
2021/03/21 05:16:37;;;;;;;10.90;9.02;;;8.40;99.90;;;;;;4994451;28;20173;-80
2021/03/21 05:19:26;;;;;;;11.98;8.80;;;8.40;99.90;;;;;;4994461;28;20600;-80
2021/03/21 05:21:57;;;;;;;10.60;8.55;;;8.40;99.90;;;;;;5012123;28;20217;-80
2021/03/21 05:24:41;;;;;;;9.70;8.55;;;8.40;99.90;;;;;;5011921;28;20205;-80
2021/03/21 05:27:16;;;;;;;10.80;8.43;;;8.40;99.90;;;;;;5012136;28;20166;-80
2021/03/21 05:30:03;;;;;;;10.77;9.13;;;8.40;99.90;;;;;;4997377;28;20582;-80
2021/03/21 05:32:30;;;;;;;11.48;9.85;;;8.40;99.90;;;;;;5017093;28;20186;-80
2021/03/21 05:34:58;;;;;;;13.65;10.93;;;8.40;99.90;;;;;;5018913;28;20171;-80
2021/03/21 05:37:31;;;;;;;12.15;10.13;;;8.40;99.90;;;;;;5013132;28;20181;-80
2021/03/21 05:40:38;;;;;;;14.43;10.57;;;8.30;99.90;;;;;;4994683;28;20735;-80
2021/03/21 05:43:34;;;;;;;11.80;8.85;;;8.30;99.90;;;;;;4994841;28;20174;-80
2021/03/21 05:46:09;;;;;;;13.77;9.77;;;8.30;99.90;;;;;;4991731;28;20748;-79
2021/03/21 05:48:56;;;;;;;11.98;10.07;;;8.30;99.90;;;;;;4994070;28;20162;-79
2021/03/21 05:52:00;;;;;;;12.50;9.80;;;8.40;99.90;;;;;;5011690;28;20710;-79
2021/03/21 05:54:44;;;;;;;14.32;10.75;;;8.40;99.90;;;;;;5014947;28;20163;-80
2021/03/21 05:57:13;;;;;;;12.60;10.52;;;8.30;99.90;;;;;;4997601;28;20251;-80
2021/03/21 06:00:15;;;;;;;12.48;10.30;;;8.30;99.90;;;;;;4997848;28;20163;-80
2021/03/21 06:03:15;;;;;;;15.82;11.32;;;8.30;99.90;;;;;;5015154;28;20178;-79
2021/03/21 06:06:04;;;;;;;11.45;10.15;;;8.30;99.90;;;;;;4997876;28;20194;-80
2021/03/21 06:08:32;;;;;;;13.07;11.25;;;8.30;99.90;;;;;;4997452;28;20557;-80
2021/03/21 06:11:21;;;;;;;14.10;10.85;;;8.40;99.90;;;;;;4997687;28;20517;-79
2021/03/21 06:14:08;;;;;;;13.65;10.85;;;8.30;99.90;;;;;;4997759;28;20175;-79
2021/03/21 06:16:49;;;;;;;14.48;11.10;;;8.30;99.90;;;;;;4997079;28;20170;-79
2021/03/21 06:19:42;;;;;;;14.10;10.60;;;8.30;99.90;;;;;;4997689;28;20170;-79
2021/03/21 06:22:14;;;;;;;15.63;10.95;;;8.30;99.90;;;;;;5019984;28;20186;-79
2021/03/21 06:25:24;;;;;;;17.20;14.25;;;8.40;99.90;;;;;;5015050;28;20222;-79
2021/03/21 06:28:31;;;;;;;19.10;13.30;;;8.40;99.90;;;;;;4997634;28;20166;-79
2021/03/21 06:31:25;;;;;;;13.23;10.45;;;8.40;99.90;;;;;;4997158;28;20747;-78
2021/03/21 06:34:20;;;;;;;13.70;11.05;;;8.40;99.90;;;;;;5014960;28;20162;-79
2021/03/21 06:36:56;;;;;;;15.98;12.13;;;8.40;99.90;;;;;;4997067;28;20266;-78
2021/03/21 06:39:40;;;;;;;14.23;11.32;;;8.40;99.90;;;;;;5014864;28;20184;-78
2021/03/21 06:42:29;;;;;;;15.75;11.70;;;8.40;99.90;;;;;;5014934;28;20182;-78
2021/03/21 06:45:32;;;;;;;17.00;11.75;;;8.50;99.90;;;;;;4959372;28;20218;-80
2021/03/21 06:48:23;;;;;;;17.30;12.40;;;8.50;99.90;;;;;;5014557;28;20795;-79
2021/03/21 06:50:57;;;;;;;16.00;12.55;;;8.50;99.90;;;;;;4996753;28;20572;-79
2021/03/21 06:53:49;;;;;;;17.20;12.90;;;8.50;99.90;;;;;;5014329;28;20173;-79
2021/03/21 06:56:59;;;;;;;16.25;11.82;;;8.50;99.90;;;;;;4996437;28;20182;-80
2021/03/21 07:00:09;;;;;;;17.52;13.98;;;8.60;99.90;;;;;;5020681;28;20170;-80
2021/03/21 07:02:57;;;;;;;14.90;12.05;;;8.60;99.90;;;;;;4918348;29;20200;-79
2021/03/21 07:05:42;;;;;;;14.73;11.88;;;8.60;99.90;;;;;;5013794;28;20197;-78
2021/03/21 07:08:32;;;;;;;17.38;13.27;;;8.70;99.90;;;;;;5013621;28;20170;-79
2021/03/21 07:11:13;;;;;;;16.17;12.18;;;8.70;99.90;;;;;;5013828;28;20594;-79
2021/03/21 07:13:53;;;;;;;20.08;15.18;;;8.70;99.90;;;;;;4996167;28;20167;-79
2021/03/21 07:16:57;;;;;;;15.55;12.90;;;8.80;99.90;;;;;;5006421;28;20227;-79
2021/03/21 07:19:31;;;;;;;18.92;13.07;;;8.70;99.90;;;;;;4996258;28;20174;-78
2021/03/21 07:22:14;;;;;;;13.70;11.23;;;8.80;99.90;;;;;;4979701;28;20193;-78
2021/03/21 07:24:57;;;;;;;13.65;11.02;;;8.80;99.90;;;;;;5013211;28;20240;-78
2021/03/21 07:27:53;;;;;;;14.35;11.38;;;8.80;99.90;;;;;;4991593;28;20173;-77
2021/03/21 07:30:30;;;;;;;13.80;12.10;;;8.90;99.90;;;;;;4983733;28;20489;-79
2021/03/21 07:33:21;;;;;;;15.05;12.73;;;9.00;99.90;;;;;;4975697;28;20194;-78
2021/03/21 07:36:06;;;;;;;14.75;11.25;;;9.00;99.90;;;;;;4979996;28;20175;-79
2021/03/21 07:38:48;;;;;;;13.55;11.25;;;9.10;99.90;;;;;;5004715;28;20189;-79
2021/03/21 07:41:23;;;;;;;13.70;10.85;;;9.20;99.90;;;;;;5012841;28;20193;-78
2021/03/21 07:44:31;;;;;;;12.25;10.77;;;9.30;99.90;;;;;;4995506;28;20162;-79
2021/03/21 07:47:31;;;;;;;13.68;11.35;;;9.40;99.90;;;;;;5001448;28;20257;-78
2021/03/21 07:50:11;;;;;;;12.25;9.57;;;9.50;99.90;;;;;;4975675;28;20171;-79
2021/03/21 07:52:52;;;;;;;11.93;9.57;;;9.60;99.90;;;;;;4992037;28;20206;-78
2021/03/21 07:55:56;;;;;;;9.57;8.65;;;9.70;99.90;;;;;;4975484;28;20211;-79
2021/03/21 07:58:35;;;;;;;12.90;9.75;;;9.80;99.90;;;;;;4932355;29;20180;-79
2021/03/21 08:01:02;;;;;;;15.50;10.18;;;9.80;99.90;;;;;;4932730;29;20347;-78
2021/03/21 08:03:43;;;;;;;11.45;10.15;;;9.80;99.90;;;;;;4972720;28;20182;-78
2021/03/21 08:06:43;;;;;;;12.32;9.75;;;9.80;99.90;;;;;;4994980;28;20619;-78
2021/03/21 08:09:22;;;;;;;10.45;9.20;;;9.80;99.90;;;;;;5012408;28;20171;-78
2021/03/21 08:12:09;;;;;;;8.18;7.35;;;9.90;99.90;;;;;;5012763;28;20222;-79
2021/03/21 08:14:43;;;;;;;11.60;10.40;;;9.90;99.90;;;;;;4997291;28;20539;-79
2021/03/21 08:17:23;;;;;;;8.68;7.78;;;9.90;99.90;;;;;;5011785;28;20177;-79
2021/03/21 08:19:55;;;;;;;12.73;9.05;;;9.90;99.90;;;;;;5012257;28;20166;-79
2021/03/21 08:22:27;;;;;;;9.52;7.78;;;9.90;99.90;;;;;;5012323;28;20186;-79
2021/03/21 08:24:58;;;;;;;9.90;7.43;;;10.00;99.90;;;;;;4994488;28;20241;-79
2021/03/21 08:27:27;;;;;;;7.60;6.25;;;10.00;99.90;;;;;;5011918;28;20178;-78
2021/03/21 08:30:26;;;;;;;8.77;6.20;;;10.00;99.90;;;;;;5012016;28;20253;-78
2021/03/21 08:33:02;;;;;;;11.25;6.80;;;10.10;99.90;;;;;;4995858;28;20229;-78
2021/03/21 08:35:34;;;;;;;8.18;6.35;;;10.20;99.90;;;;;;5012361;28;20304;-78
2021/03/21 08:38:16;;;;;;;7.13;5.32;;;10.20;99.90;;;;;;5006795;28;20171;-77
2021/03/21 08:40:43;;;;;;;5.90;4.32;;;10.30;99.90;;;;;;4992445;28;20185;-78
2021/03/21 08:43:24;;;;;;;8.63;6.07;;;10.40;99.90;;;;;;4992318;28;20174;-77
2021/03/21 08:46:08;;;;;;;7.18;5.82;;;10.40;99.90;;;;;;4975029;28;20202;-78
2021/03/21 08:48:37;;;;;;;9.30;5.80;;;10.40;99.90;;;;;;4991855;28;21053;-78
2021/03/21 08:51:12;;;;;;;6.55;5.85;;;10.30;99.90;;;;;;4995442;28;20183;-78
2021/03/21 08:54:12;;;;;;;9.25;5.90;;;10.30;99.90;;;;;;4992067;28;20256;-78
2021/03/21 08:56:39;;;;;;;5.40;4.07;;;10.30;99.90;;;;;;4990358;28;20179;-78
2021/03/21 08:59:32;;;;;;;6.30;4.38;;;10.30;99.90;;;;;;4991988;28;20175;-78
2021/03/21 09:02:10;;;;;;;5.68;4.65;;;10.40;99.90;;;;;;5002625;28;20689;-78
2021/03/21 09:05:01;;;;;;;4.35;3.65;;;10.30;99.90;;;;;;4980900;28;20182;-76
2021/03/21 09:07:34;;;;;;;6.78;5.25;;;10.40;99.90;;;;;;5011164;28;20592;-76
2021/03/21 09:10:12;;;;;;;4.85;3.47;;;10.40;99.90;;;;;;4995573;28;20181;-78
2021/03/21 09:13:00;;;;;;;5.00;3.70;;;10.50;99.90;;;;;;4991696;28;20622;-77
2021/03/21 09:15:40;;;;;;;5.30;3.80;;;10.50;99.90;;;;;;4991690;28;20167;-78
2021/03/21 09:18:19;;;;;;;4.78;4.00;;;10.50;99.90;;;;;;4977259;28;20178;-77
2021/03/21 09:21:15;;;;;;;4.70;2.92;;;10.60;99.90;;;;;;5011307;28;20275;-78
2021/03/21 09:23:46;;;;;;;6.88;3.17;;;10.70;99.90;;;;;;5011443;28;20170;-78
2021/03/21 09:26:11;;;;;;;3.83;3.00;;;10.80;99.90;;;;;;4994354;28;20718;-78
2021/03/21 09:28:41;;;;;;;3.70;2.27;;;11.00;99.90;;;;;;5022759;28;20252;-77
2021/03/21 09:31:13;;;;;;;2.80;1.67;;;11.10;99.90;;;;;;5014054;28;20224;-78
2021/03/21 09:33:50;;;;;;;3.30;1.30;;;11.10;99.90;;;;;;4992346;28;20598;-79
2021/03/21 09:36:34;;;;;;;1.85;1.30;;;11.20;99.90;;;;;;4995369;28;20177;-78
2021/03/21 09:39:18;;;;;;;3.90;1.27;;;11.20;99.90;;;;;;4994690;28;20174;-78
2021/03/21 09:41:48;;;;;;;5.63;1.15;;;11.20;99.90;;;;;;4994192;28;20275;-78
2021/03/21 09:44:31;;;;;;;1.50;0.85;;;11.20;99.90;;;;;;4995742;28;20267;-77
2021/03/21 09:47:16;;;;;;;1.60;0.80;;;11.20;99.90;;;;;;4994869;28;20256;-78
2021/03/21 09:49:47;;;;;;;1.55;0.75;;;11.10;99.90;;;;;;4995568;28;20167;-78
2021/03/21 09:52:16;;;;;;;1.55;0.80;;;11.10;99.90;;;;;;4993895;28;21689;-79
2021/03/21 09:55:12;;;;;;;2.05;1.20;;;11.00;99.90;;;;;;4995484;28;20171;-78
2021/03/21 09:58:02;;;;;;;1.30;0.77;;;11.00;99.90;;;;;;4993729;28;20183;-80
2021/03/21 10:00:34;;;;;;;1.90;1.17;;;10.90;99.90;;;;;;4995238;28;20171;-79
2021/03/21 10:03:04;;;;;;;2.33;1.75;;;10.80;99.90;;;;;;4995247;28;20293;-79
2021/03/21 10:06:01;;;;;;;3.13;2.10;;;10.80;99.90;;;;;;5003620;28;20281;-79
2021/03/21 10:09:19;;;;;;;6.38;2.92;;;10.70;99.90;;;;;;4993403;28;20635;-79
2021/03/21 10:11:47;;;;;;;5.93;2.33;;;10.60;99.90;;;;;;4934561;29;20197;-80
2021/03/21 10:14:35;;;;;;;4.88;1.83;;;10.60;99.90;;;;;;4935337;29;20177;-80
2021/03/21 10:17:16;;;;;;;4.50;2.20;;;10.60;99.90;;;;;;4980913;28;20533;-80
2021/03/21 10:19:48;;;;;;;5.40;1.65;;;10.50;99.90;;;;;;4995350;28;20644;-80
2021/03/21 10:22:20;;;;;;;4.30;1.60;;;10.60;99.90;;;;;;4993695;28;20273;-80
2021/03/21 10:24:57;;;;;;;5.60;1.60;;;10.70;99.90;;;;;;5000154;28;20190;-80
2021/03/21 10:27:29;;;;;;;6.22;1.85;;;10.90;99.90;;;;;;4996244;28;20256;-80
2021/03/21 10:30:25;;;;;;;4.15;1.85;;;11.20;99.90;;;;;;5010213;28;20221;-79
2021/03/21 10:33:00;;;;;;;6.45;3.10;;;11.30;99.90;;;;;;4987824;28;20203;-80
2021/03/21 10:35:30;;;;;;;7.47;3.60;;;11.50;99.90;;;;;;5003730;28;20173;-80
2021/03/21 10:38:32;;;;;;;8.95;2.45;;;11.60;99.90;;;;;;4987063;28;20535;-80
2021/03/21 10:40:58;;;;;;;5.85;1.90;;;11.50;99.90;;;;;;5003395;28;20198;-80
2021/03/21 10:43:23;;;;;;;7.60;1.90;;;11.50;99.90;;;;;;5008254;28;20170;-80
2021/03/21 10:45:52;;;;;;;6.63;1.80;;;11.50;99.90;;;;;;4998703;28;20724;-80
2021/03/21 10:48:18;;;;;;;8.95;1.95;;;11.50;99.90;;;;;;4992237;28;20541;-78
2021/03/21 10:50:56;;;;;;;7.90;2.40;;;11.40;99.90;;;;;;5004126;28;20178;-81
2021/03/21 10:53:21;;;;;;;8.13;2.33;;;11.40;99.90;;;;;;4999455;28;20179;-80
2021/03/21 10:56:22;;;;;;;6.63;1.90;;;11.40;99.90;;;;;;4984194;28;20198;-80
2021/03/21 10:59:06;;;;;;;7.00;2.40;;;11.30;99.90;;;;;;5004723;28;21146;-82
2021/03/21 11:01:38;;;;;;;6.72;2.38;;;11.30;99.90;;;;;;4982133;28;20198;-81
2021/03/21 11:04:25;;;;;;;8.15;2.42;;;11.20;99.90;;;;;;4987664;28;20175;-81
2021/03/21 11:06:56;;;;;;;7.35;2.70;;;11.20;99.90;;;;;;4994389;28;20592;-80
2021/03/21 11:09:26;;;;;;;7.90;2.30;;;11.20;99.90;;;;;;4992676;28;20171;-80
2021/03/21 11:11:53;;;;;;;8.63;2.28;;;11.20;99.90;;;;;;5004257;28;20297;-80
2021/03/21 11:14:29;;;;;;;7.60;2.13;;;11.20;99.90;;;;;;5004217;28;20527;-80
2021/03/21 11:17:22;;;;;;;8.13;2.20;;;11.30;99.90;;;;;;5002255;28;20259;-81
2021/03/21 11:19:57;;;;;;;5.53;1.95;;;11.30;99.90;;;;;;5010711;28;20543;-81
2021/03/21 11:22:29;;;;;;;8.18;1.75;;;11.40;99.90;;;;;;4982450;28;20273;-81
2021/03/21 11:24:55;;;;;;;4.68;1.67;;;11.60;99.90;;;;;;5004001;28;20217;-81
2021/03/21 11:27:39;;;;;;;9.15;3.25;;;11.80;99.90;;;;;;4983927;28;20179;-81
2021/03/21 11:30:16;;;;;;;7.20;2.60;;;11.90;99.90;;;;;;5003580;28;20225;-81
2021/03/21 11:32:42;;;;;;;8.38;1.92;;;12.10;99.90;;;;;;5000097;28;20199;-80
2021/03/21 11:35:24;;;;;;;7.72;2.17;;;12.20;99.90;;;;;;4985360;28;20178;-80
2021/03/21 11:37:50;;;;;;;7.35;1.65;;;12.20;99.90;;;;;;4985951;28;20171;-80
2021/03/21 11:40:31;;;;;;;4.18;1.88;;;12.20;99.90;;;;;;5004094;28;20170;-80
2021/03/21 11:43:09;;;;;;;7.40;1.50;;;12.20;99.90;;;;;;4991758;28;20199;-81
2021/03/21 11:45:38;;;;;;;5.85;1.85;;;12.20;99.90;;;;;;5002150;28;20553;-79
2021/03/21 11:48:10;;;;;;;5.82;2.50;;;12.10;99.90;;;;;;5002392;28;20553;-79
2021/03/21 11:50:39;;;;;;;8.25;1.98;;;12.00;99.90;;;;;;5003132;28;20234;-79
2021/03/21 11:53:11;;;;;;;14.43;2.33;;;11.90;99.90;;;;;;4985362;28;20171;-79
2021/03/21 11:55:46;;;;;;;13.35;3.00;;;11.80;99.90;;;;;;5005320;28;20181;-80
2021/03/21 11:58:24;;;;;;;6.70;1.90;;;11.70;99.90;;;;;;5001098;28;20186;-80
2021/03/21 12:01:04;;;;;;;9.93;2.33;;;11.50;99.90;;;;;;4999887;28;20175;-79
2021/03/21 12:03:44;;;;;;;7.65;2.15;;;11.50;99.70;;;;;;5000639;28;20257;-81
2021/03/21 12:06:49;;;;;;;11.00;3.58;;;11.60;99.90;;;;;;4983749;28;20194;-81
2021/03/21 12:09:34;;;;;;;11.63;2.13;;;11.70;99.90;;;;;;4990098;28;20174;-79
2021/03/21 12:12:38;;;;;;;9.82;2.90;;;11.80;99.90;;;;;;5108644;27;20711;-79
2021/03/21 12:15:33;;;;;;;8.95;2.70;;;12.00;99.90;;;;;;5107337;28;20177;-81
2021/03/21 12:18:06;;;;;;;8.55;2.17;;;12.10;99.90;;;;;;5105814;28;20276;-79
2021/03/21 12:20:42;;;;;;;8.10;2.40;;;12.20;99.90;;;;;;5107847;28;20199;-80
2021/03/21 12:23:26;;;;;;;11.95;2.20;;;12.30;99.10;;;;;;5107871;28;20606;-80
2021/03/21 12:26:13;;;;;;;11.20;3.72;;;12.40;99.90;;;;;;5108226;28;20182;-80
2021/03/21 12:29:10;;;;;;;8.88;2.90;;;12.40;99.70;;;;;;5104997;28;20198;-79
2021/03/21 12:31:39;;;;;;;12.07;3.13;;;12.50;99.50;;;;;;5108482;28;20205;-79
2021/03/21 12:34:44;;;;;;;12.15;3.53;;;12.50;99.60;;;;;;5113799;28;20163;-80
2021/03/21 12:37:20;;;;;;;12.68;4.45;;;12.50;98.80;;;;;;5108009;28;20182;-79
2021/03/21 12:40:10;;;;;;;13.80;4.22;;;12.50;96.40;;;;;;5106172;28;20193;-80
2021/03/21 12:42:47;;;;;;;10.90;4.20;;;12.30;97.30;;;;;;5107884;28;20194;-80
2021/03/21 12:45:28;;;;;;;12.77;3.63;;;12.30;97.70;;;;;;5107467;28;20182;-79
2021/03/21 12:47:53;;;;;;;10.23;3.53;;;12.20;97.40;;;;;;5108175;28;20533;-80
2021/03/21 12:50:35;;;;;;;12.57;3.90;;;12.10;97.80;;;;;;5107459;28;20762;-79
2021/03/21 12:53:04;;;;;;;10.18;3.95;;;12.10;97.20;;;;;;5105162;28;20215;-79
2021/03/21 12:55:30;;;;;;;8.93;3.28;;;12.20;97.90;;;;;;5105967;28;20160;-81
2021/03/21 12:57:56;;;;;;;10.43;2.77;;;12.30;98.20;;;;;;5106309;28;20175;-81
2021/03/21 13:00:29;;;;;;;15.10;3.80;;;12.30;97.80;;;;;;5106947;28;20981;-81
2021/03/21 13:02:56;;;;;;;12.93;3.65;;;12.40;97.70;;;;;;5107619;28;20191;-82
2021/03/21 13:05:30;;;;;;;9.43;3.58;;;12.50;96.30;;;;;;5105884;28;20727;-82
2021/03/21 13:07:56;;;;;;;11.27;3.10;;;12.20;95.40;;;;;;5108689;28;20181;-82
2021/03/21 13:10:26;;;;;;;10.93;2.47;;;12.20;96.50;;;;;;5114696;28;20206;-81
2021/03/21 13:12:55;;;;;;;10.20;3.60;;;12.30;96.70;;;;;;5108569;28;20183;-81
2021/03/21 13:15:21;;;;;;;10.32;2.97;;;12.40;96.80;;;;;;5106958;28;20172;-81
2021/03/21 13:17:48;;;;;;;10.93;3.10;;;12.40;96.40;;;;;;5106220;28;20185;-80
2021/03/21 13:20:17;;;;;;;12.75;2.90;;;12.40;96.50;;;;;;5106236;28;20520;-80
2021/03/21 13:22:43;;;;;;;17.10;3.05;;;12.40;96.40;;;;;;5096830;28;20195;-81
2021/03/21 13:25:13;;;;;;;10.45;2.60;;;12.50;96.60;;;;;;5094128;28;20179;-81
2021/03/21 13:27:40;;;;;;;16.15;3.67;;;12.50;96.80;;;;;;5086647;28;20212;-80
2021/03/21 13:30:06;;;;;;;10.13;2.88;;;12.50;96.90;;;;;;5093796;28;20187;-81
2021/03/21 13:32:32;;;;;;;13.10;4.07;;;12.60;96.50;;;;;;5093278;28;20188;-81
2021/03/21 13:34:58;;;;;;;11.50;2.60;;;12.60;96.00;;;;;;5092233;28;20167;-79
2021/03/21 13:37:24;;;;;;;13.10;3.93;;;12.60;96.10;;;;;;5091864;28;20167;-79
2021/03/21 13:39:51;;;;;;;10.37;3.07;;;12.50;95.40;;;;;;5094735;28;20242;-79